sensor_id;sensor_type;location;lat;lon;timestamp;temperature;humidity
72206;DHT22;60111;48.286;7.812;2023-03-14T00:00:04;11.50;78.20
72206;DHT22;60111;48.286;7.812;2023-03-14T00:02:37;11.50;77.80
72206;DHT22;60111;48.286;7.812;2023-03-14T00:05:10;11.50;78.10
72206;DHT22;60111;48.286;7.812;2023-03-14T00:07:43;11.60;77.60
72206;DHT22;60111;48.286;7.812;2023-03-14T00:10:15;11.60;76.90
72206;DHT22;60111;48.286;7.812;2023-03-14T00:12:49;11.60;76.60
72206;DHT22;60111;48.286;7.812;2023-03-14T00:15:21;11.60;76.40
72206;DHT22;60111;48.286;7.812;2023-03-14T00:17:54;11.60;76.10
72206;DHT22;60111;48.286;7.812;2023-03-14T00:20:26;11.60;75.30
72206;DHT22;60111;48.286;7.812;2023-03-14T00:22:59;11.70;74.60
72206;DHT22;60111;48.286;7.812;2023-03-14T00:25:32;11.70;74.50
72206;DHT22;60111;48.286;7.812;2023-03-14T00:28:04;11.80;73.50
72206;DHT22;60111;48.286;7.812;2023-03-14T00:30:37;11.80;72.90
72206;DHT22;60111;48.286;7.812;2023-03-14T00:33:10;11.80;73.20
72206;DHT22;60111;48.286;7.812;2023-03-14T00:35:42;11.80;74.10
72206;DHT22;60111;48.286;7.812;2023-03-14T00:38:15;11.70;75.20
72206;DHT22;60111;48.286;7.812;2023-03-14T00:40:47;11.60;75.90
72206;DHT22;60111;48.286;7.812;2023-03-14T00:43:21;11.60;76.60
72206;DHT22;60111;48.286;7.812;2023-03-14T00:45:54;11.60;75.40
72206;DHT22;60111;48.286;7.812;2023-03-14T00:48:27;11.60;74.30
72206;DHT22;60111;48.286;7.812;2023-03-14T00:51:00;11.60;75.10
72206;DHT22;60111;48.286;7.812;2023-03-14T00:53:35;11.70;74.80
72206;DHT22;60111;48.286;7.812;2023-03-14T00:56:10;11.60;74.80
72206;DHT22;60111;48.286;7.812;2023-03-14T00:58:43;11.60;75.10
72206;DHT22;60111;48.286;7.812;2023-03-14T01:01:17;11.60;73.80
72206;DHT22;60111;48.286;7.812;2023-03-14T01:03:52;11.70;73.60
72206;DHT22;60111;48.286;7.812;2023-03-14T01:06:27;11.60;73.70
72206;DHT22;60111;48.286;7.812;2023-03-14T01:09:00;11.70;73.10
72206;DHT22;60111;48.286;7.812;2023-03-14T01:11:34;11.70;72.60
72206;DHT22;60111;48.286;7.812;2023-03-14T01:14:07;11.70;73.00
72206;DHT22;60111;48.286;7.812;2023-03-14T01:16:39;11.70;72.00
72206;DHT22;60111;48.286;7.812;2023-03-14T01:19:12;11.70;72.00
72206;DHT22;60111;48.286;7.812;2023-03-14T01:21:45;11.70;71.60
72206;DHT22;60111;48.286;7.812;2023-03-14T01:24:17;11.70;71.40
72206;DHT22;60111;48.286;7.812;2023-03-14T01:26:51;11.60;71.20
72206;DHT22;60111;48.286;7.812;2023-03-14T01:29:23;11.60;71.40
72206;DHT22;60111;48.286;7.812;2023-03-14T01:31:56;11.60;71.60
72206;DHT22;60111;48.286;7.812;2023-03-14T01:34:28;11.60;71.00
72206;DHT22;60111;48.286;7.812;2023-03-14T01:37:01;11.50;70.60
72206;DHT22;60111;48.286;7.812;2023-03-14T01:39:33;11.50;70.30
72206;DHT22;60111;48.286;7.812;2023-03-14T01:42:06;11.50;70.40
72206;DHT22;60111;48.286;7.812;2023-03-14T01:44:51;11.50;70.00
72206;DHT22;60111;48.286;7.812;2023-03-14T01:47:23;11.40;69.50
72206;DHT22;60111;48.286;7.812;2023-03-14T01:50:06;11.40;70.60
72206;DHT22;60111;48.286;7.812;2023-03-14T01:52:47;11.40;70.50
72206;DHT22;60111;48.286;7.812;2023-03-14T01:55:23;11.40;70.30
72206;DHT22;60111;48.286;7.812;2023-03-14T01:58:01;11.30;69.70
72206;DHT22;60111;48.286;7.812;2023-03-14T02:00:34;11.30;69.10
72206;DHT22;60111;48.286;7.812;2023-03-14T02:03:16;11.30;69.50
72206;DHT22;60111;48.286;7.812;2023-03-14T02:05:45;11.30;69.40
72206;DHT22;60111;48.286;7.812;2023-03-14T02:08:20;11.30;69.20
72206;DHT22;60111;48.286;7.812;2023-03-14T02:10:52;11.30;69.20
72206;DHT22;60111;48.286;7.812;2023-03-14T02:13:24;11.30;69.30
72206;DHT22;60111;48.286;7.812;2023-03-14T02:15:58;11.30;68.80
72206;DHT22;60111;48.286;7.812;2023-03-14T02:18:30;11.30;68.30
72206;DHT22;60111;48.286;7.812;2023-03-14T02:24:00;11.30;67.90
72206;DHT22;60111;48.286;7.812;2023-03-14T02:26:40;11.30;67.60
72206;DHT22;60111;48.286;7.812;2023-03-14T02:29:13;11.30;67.70
72206;DHT22;60111;48.286;7.812;2023-03-14T02:31:45;11.30;67.10
72206;DHT22;60111;48.286;7.812;2023-03-14T02:34:18;11.30;67.30
72206;DHT22;60111;48.286;7.812;2023-03-14T02:36:52;11.30;67.50
72206;DHT22;60111;48.286;7.812;2023-03-14T02:39:42;11.30;67.50
72206;DHT22;60111;48.286;7.812;2023-03-14T02:42:16;11.30;67.60
72206;DHT22;60111;48.286;7.812;2023-03-14T02:45:00;11.30;66.60
72206;DHT22;60111;48.286;7.812;2023-03-14T02:47:33;11.30;66.50
72206;DHT22;60111;48.286;7.812;2023-03-14T02:50:19;11.30;66.30
72206;DHT22;60111;48.286;7.812;2023-03-14T02:52:48;11.40;66.20
72206;DHT22;60111;48.286;7.812;2023-03-14T02:55:23;11.40;66.10
72206;DHT22;60111;48.286;7.812;2023-03-14T02:57:58;11.40;66.10
72206;DHT22;60111;48.286;7.812;2023-03-14T03:00:30;11.40;66.40
72206;DHT22;60111;48.286;7.812;2023-03-14T03:03:03;11.40;65.90
72206;DHT22;60111;48.286;7.812;2023-03-14T03:05:37;11.40;66.10
72206;DHT22;60111;48.286;7.812;2023-03-14T03:08:10;11.40;66.00
72206;DHT22;60111;48.286;7.812;2023-03-14T03:10:43;11.40;65.50
72206;DHT22;60111;48.286;7.812;2023-03-14T03:13:16;11.40;65.10
72206;DHT22;60111;48.286;7.812;2023-03-14T03:15:49;11.40;66.10
72206;DHT22;60111;48.286;7.812;2023-03-14T03:18:22;11.40;65.00
72206;DHT22;60111;48.286;7.812;2023-03-14T03:20:54;11.40;65.30
72206;DHT22;60111;48.286;7.812;2023-03-14T03:23:27;11.30;65.10
72206;DHT22;60111;48.286;7.812;2023-03-14T03:25:59;11.40;65.20
72206;DHT22;60111;48.286;7.812;2023-03-14T03:28:33;11.40;65.30
72206;DHT22;60111;48.286;7.812;2023-03-14T03:31:10;11.40;64.90
72206;DHT22;60111;48.286;7.812;2023-03-14T03:33:43;11.40;64.70
72206;DHT22;60111;48.286;7.812;2023-03-14T03:36:17;11.40;64.80
72206;DHT22;60111;48.286;7.812;2023-03-14T03:38:50;11.40;64.70
72206;DHT22;60111;48.286;7.812;2023-03-14T03:41:22;11.30;64.40
72206;DHT22;60111;48.286;7.812;2023-03-14T03:43:56;11.30;64.90
72206;DHT22;60111;48.286;7.812;2023-03-14T03:46:28;11.30;64.30
72206;DHT22;60111;48.286;7.812;2023-03-14T03:49:01;11.30;64.60
72206;DHT22;60111;48.286;7.812;2023-03-14T03:51:33;11.30;64.70
72206;DHT22;60111;48.286;7.812;2023-03-14T03:54:06;11.30;64.30
72206;DHT22;60111;48.286;7.812;2023-03-14T03:56:38;11.20;64.60
72206;DHT22;60111;48.286;7.812;2023-03-14T03:59:11;11.20;64.20
72206;DHT22;60111;48.286;7.812;2023-03-14T04:01:44;11.20;64.90
72206;DHT22;60111;48.286;7.812;2023-03-14T04:04:16;11.20;64.70
72206;DHT22;60111;48.286;7.812;2023-03-14T04:06:49;11.20;65.30
72206;DHT22;60111;48.286;7.812;2023-03-14T04:09:22;11.20;65.00
72206;DHT22;60111;48.286;7.812;2023-03-14T04:11:54;11.20;65.10
72206;DHT22;60111;48.286;7.812;2023-03-14T04:14:27;11.20;65.40
72206;DHT22;60111;48.286;7.812;2023-03-14T04:16:59;11.20;65.20
72206;DHT22;60111;48.286;7.812;2023-03-14T04:19:32;11.10;65.60
72206;DHT22;60111;48.286;7.812;2023-03-14T04:22:04;11.10;65.20
72206;DHT22;60111;48.286;7.812;2023-03-14T04:24:37;11.10;65.50
72206;DHT22;60111;48.286;7.812;2023-03-14T04:27:10;11.10;65.30
72206;DHT22;60111;48.286;7.812;2023-03-14T04:29:42;11.10;65.30
72206;DHT22;60111;48.286;7.812;2023-03-14T04:32:15;11.10;64.60
72206;DHT22;60111;48.286;7.812;2023-03-14T04:34:48;11.20;64.90
72206;DHT22;60111;48.286;7.812;2023-03-14T04:37:20;11.10;64.70
72206;DHT22;60111;48.286;7.812;2023-03-14T04:39:53;11.20;64.90
72206;DHT22;60111;48.286;7.812;2023-03-14T04:42:25;11.10;65.00
72206;DHT22;60111;48.286;7.812;2023-03-14T04:44:58;11.10;65.30
72206;DHT22;60111;48.286;7.812;2023-03-14T04:47:31;11.10;64.80
72206;DHT22;60111;48.286;7.812;2023-03-14T04:50:04;11.10;64.20
72206;DHT22;60111;48.286;7.812;2023-03-14T04:52:37;11.10;64.40
72206;DHT22;60111;48.286;7.812;2023-03-14T04:55:09;11.10;64.20
72206;DHT22;60111;48.286;7.812;2023-03-14T04:57:42;11.10;64.40
72206;DHT22;60111;48.286;7.812;2023-03-14T05:00:14;11.10;64.10
72206;DHT22;60111;48.286;7.812;2023-03-14T05:02:49;11.10;64.10
72206;DHT22;60111;48.286;7.812;2023-03-14T05:05:22;11.00;64.30
72206;DHT22;60111;48.286;7.812;2023-03-14T05:07:55;11.00;64.50
72206;DHT22;60111;48.286;7.812;2023-03-14T05:10:27;11.00;64.70
72206;DHT22;60111;48.286;7.812;2023-03-14T05:13:00;11.00;64.40
72206;DHT22;60111;48.286;7.812;2023-03-14T05:15:32;11.00;64.00
72206;DHT22;60111;48.286;7.812;2023-03-14T05:18:05;11.10;63.90
72206;DHT22;60111;48.286;7.812;2023-03-14T05:20:37;11.10;64.20
72206;DHT22;60111;48.286;7.812;2023-03-14T05:23:10;11.20;64.10
72206;DHT22;60111;48.286;7.812;2023-03-14T05:25:43;11.20;63.60
72206;DHT22;60111;48.286;7.812;2023-03-14T05:28:16;11.20;63.90
72206;DHT22;60111;48.286;7.812;2023-03-14T05:30:48;11.20;64.30
72206;DHT22;60111;48.286;7.812;2023-03-14T05:33:22;11.20;63.60
72206;DHT22;60111;48.286;7.812;2023-03-14T05:35:54;11.20;63.30
72206;DHT22;60111;48.286;7.812;2023-03-14T05:38:27;11.20;63.50
72206;DHT22;60111;48.286;7.812;2023-03-14T05:40:59;11.20;63.80
72206;DHT22;60111;48.286;7.812;2023-03-14T05:43:32;11.20;64.10
72206;DHT22;60111;48.286;7.812;2023-03-14T05:46:05;11.20;63.50
72206;DHT22;60111;48.286;7.812;2023-03-14T05:48:37;11.20;63.80
72206;DHT22;60111;48.286;7.812;2023-03-14T05:51:10;11.20;64.00
72206;DHT22;60111;48.286;7.812;2023-03-14T05:53:42;11.20;64.00
72206;DHT22;60111;48.286;7.812;2023-03-14T05:56:15;11.20;63.80
72206;DHT22;60111;48.286;7.812;2023-03-14T05:58:47;11.20;63.90
72206;DHT22;60111;48.286;7.812;2023-03-14T06:01:20;11.20;63.90
72206;DHT22;60111;48.286;7.812;2023-03-14T06:03:53;11.20;64.10
72206;DHT22;60111;48.286;7.812;2023-03-14T06:06:25;11.10;63.70
72206;DHT22;60111;48.286;7.812;2023-03-14T06:08:58;11.10;64.00
72206;DHT22;60111;48.286;7.812;2023-03-14T06:11:30;11.20;63.80
72206;DHT22;60111;48.286;7.812;2023-03-14T06:14:03;11.20;64.00
72206;DHT22;60111;48.286;7.812;2023-03-14T06:16:35;11.20;64.10
72206;DHT22;60111;48.286;7.812;2023-03-14T06:19:08;11.20;63.80
72206;DHT22;60111;48.286;7.812;2023-03-14T06:21:40;11.20;64.10
72206;DHT22;60111;48.286;7.812;2023-03-14T06:24:13;11.20;64.10
72206;DHT22;60111;48.286;7.812;2023-03-14T06:26:46;11.20;64.00
72206;DHT22;60111;48.286;7.812;2023-03-14T06:29:18;11.30;64.10
72206;DHT22;60111;48.286;7.812;2023-03-14T06:31:52;11.30;63.30
72206;DHT22;60111;48.286;7.812;2023-03-14T06:34:24;11.20;63.10
72206;DHT22;60111;48.286;7.812;2023-03-14T06:36:57;11.20;63.10
72206;DHT22;60111;48.286;7.812;2023-03-14T06:39:29;11.30;62.90
72206;DHT22;60111;48.286;7.812;2023-03-14T06:42:03;11.40;63.20
72206;DHT22;60111;48.286;7.812;2023-03-14T06:44:35;11.40;63.40
72206;DHT22;60111;48.286;7.812;2023-03-14T06:47:08;11.50;62.70
72206;DHT22;60111;48.286;7.812;2023-03-14T06:49:40;11.50;63.10
72206;DHT22;60111;48.286;7.812;2023-03-14T06:52:13;11.50;62.60
72206;DHT22;60111;48.286;7.812;2023-03-14T06:54:45;11.50;63.00
72206;DHT22;60111;48.286;7.812;2023-03-14T06:57:18;11.60;61.60
72206;DHT22;60111;48.286;7.812;2023-03-14T06:59:50;11.60;62.40
72206;DHT22;60111;48.286;7.812;2023-03-14T07:02:23;11.60;61.70
72206;DHT22;60111;48.286;7.812;2023-03-14T07:04:56;11.60;61.40
72206;DHT22;60111;48.286;7.812;2023-03-14T07:07:29;11.60;61.80
72206;DHT22;60111;48.286;7.812;2023-03-14T07:10:01;11.70;61.80
72206;DHT22;60111;48.286;7.812;2023-03-14T07:12:34;11.60;62.20
72206;DHT22;60111;48.286;7.812;2023-03-14T07:15:07;11.70;61.70
72206;DHT22;60111;48.286;7.812;2023-03-14T07:17:40;11.70;62.10
72206;DHT22;60111;48.286;7.812;2023-03-14T07:20:12;11.70;62.20
72206;DHT22;60111;48.286;7.812;2023-03-14T07:22:49;11.70;61.80
72206;DHT22;60111;48.286;7.812;2023-03-14T07:25:22;11.70;62.10
72206;DHT22;60111;48.286;7.812;2023-03-14T07:27:55;11.70;62.20
72206;DHT22;60111;48.286;7.812;2023-03-14T07:30:27;11.70;61.40
72206;DHT22;60111;48.286;7.812;2023-03-14T07:33:00;11.70;60.70
72206;DHT22;60111;48.286;7.812;2023-03-14T07:35:32;11.80;60.60
72206;DHT22;60111;48.286;7.812;2023-03-14T07:38:05;11.80;60.80
72206;DHT22;60111;48.286;7.812;2023-03-14T07:40:37;11.80;60.60
72206;DHT22;60111;48.286;7.812;2023-03-14T07:43:10;11.90;60.70
72206;DHT22;60111;48.286;7.812;2023-03-14T07:45:47;11.90;61.00
72206;DHT22;60111;48.286;7.812;2023-03-14T07:48:19;11.90;60.70
72206;DHT22;60111;48.286;7.812;2023-03-14T07:50:54;11.90;60.40
72206;DHT22;60111;48.286;7.812;2023-03-14T07:53:27;11.80;60.90
72206;DHT22;60111;48.286;7.812;2023-03-14T07:55:59;11.80;61.30
72206;DHT22;60111;48.286;7.812;2023-03-14T07:58:33;11.80;61.40
72206;DHT22;60111;48.286;7.812;2023-03-14T08:01:05;11.80;62.20
72206;DHT22;60111;48.286;7.812;2023-03-14T08:03:38;11.80;61.90
72206;DHT22;60111;48.286;7.812;2023-03-14T08:06:10;11.80;62.30
72206;DHT22;60111;48.286;7.812;2023-03-14T08:08:43;11.80;62.30
72206;DHT22;60111;48.286;7.812;2023-03-14T08:11:16;11.80;62.00
72206;DHT22;60111;48.286;7.812;2023-03-14T08:13:48;11.80;62.50
72206;DHT22;60111;48.286;7.812;2023-03-14T08:16:22;11.70;61.70
72206;DHT22;60111;48.286;7.812;2023-03-14T08:18:55;11.70;62.90
72206;DHT22;60111;48.286;7.812;2023-03-14T08:21:28;11.70;62.80
72206;DHT22;60111;48.286;7.812;2023-03-14T08:24:00;11.70;63.40
72206;DHT22;60111;48.286;7.812;2023-03-14T08:26:33;11.60;63.60
72206;DHT22;60111;48.286;7.812;2023-03-14T08:29:05;11.60;63.30
72206;DHT22;60111;48.286;7.812;2023-03-14T08:31:39;11.50;63.90
72206;DHT22;60111;48.286;7.812;2023-03-14T08:34:12;11.50;63.40
72206;DHT22;60111;48.286;7.812;2023-03-14T08:36:45;11.50;63.20
72206;DHT22;60111;48.286;7.812;2023-03-14T08:39:17;11.50;63.10
72206;DHT22;60111;48.286;7.812;2023-03-14T08:41:50;11.60;63.80
72206;DHT22;60111;48.286;7.812;2023-03-14T08:44:23;11.60;63.50
72206;DHT22;60111;48.286;7.812;2023-03-14T08:46:56;11.80;63.90
72206;DHT22;60111;48.286;7.812;2023-03-14T08:49:28;11.90;62.80
72206;DHT22;60111;48.286;7.812;2023-03-14T08:52:03;11.90;63.30
72206;DHT22;60111;48.286;7.812;2023-03-14T08:54:35;12.00;63.60
72206;DHT22;60111;48.286;7.812;2023-03-14T08:57:08;12.00;63.20
72206;DHT22;60111;48.286;7.812;2023-03-14T08:59:41;12.00;63.00
72206;DHT22;60111;48.286;7.812;2023-03-14T09:02:13;12.30;62.20
72206;DHT22;60111;48.286;7.812;2023-03-14T09:04:46;12.60;60.70
72206;DHT22;60111;48.286;7.812;2023-03-14T09:07:19;12.60;61.60
72206;DHT22;60111;48.286;7.812;2023-03-14T09:09:52;12.50;61.60
72206;DHT22;60111;48.286;7.812;2023-03-14T09:12:25;12.40;61.10
72206;DHT22;60111;48.286;7.812;2023-03-14T09:14:57;12.40;62.40
72206;DHT22;60111;48.286;7.812;2023-03-14T09:17:30;12.40;62.10
72206;DHT22;60111;48.286;7.812;2023-03-14T09:20:06;12.30;62.20
72206;DHT22;60111;48.286;7.812;2023-03-14T09:22:40;12.40;62.50
72206;DHT22;60111;48.286;7.812;2023-03-14T09:25:12;12.50;63.00
72206;DHT22;60111;48.286;7.812;2023-03-14T09:27:45;12.60;61.80
72206;DHT22;60111;48.286;7.812;2023-03-14T09:30:17;12.50;61.20
72206;DHT22;60111;48.286;7.812;2023-03-14T09:32:50;12.40;61.60
72206;DHT22;60111;48.286;7.812;2023-03-14T09:35:23;12.30;62.00
72206;DHT22;60111;48.286;7.812;2023-03-14T09:37:56;12.20;61.90
72206;DHT22;60111;48.286;7.812;2023-03-14T09:40:31;12.20;62.70
72206;DHT22;60111;48.286;7.812;2023-03-14T09:43:05;12.10;62.90
72206;DHT22;60111;48.286;7.812;2023-03-14T09:45:39;11.90;62.40
72206;DHT22;60111;48.286;7.812;2023-03-14T09:48:22;11.90;63.30
72206;DHT22;60111;48.286;7.812;2023-03-14T09:50:58;11.90;64.90
72206;DHT22;60111;48.286;7.812;2023-03-14T09:53:37;11.80;65.70
72206;DHT22;60111;48.286;7.812;2023-03-14T09:59:05;11.60;65.10
72206;DHT22;60111;48.286;7.812;2023-03-14T10:01:38;11.60;65.90
72206;DHT22;60111;48.286;7.812;2023-03-14T10:04:15;11.60;66.20
72206;DHT22;60111;48.286;7.812;2023-03-14T10:06:49;11.60;67.00
72206;DHT22;60111;48.286;7.812;2023-03-14T10:09:23;11.50;67.10
72206;DHT22;60111;48.286;7.812;2023-03-14T10:11:59;11.40;66.90
72206;DHT22;60111;48.286;7.812;2023-03-14T10:14:37;11.30;67.70
72206;DHT22;60111;48.286;7.812;2023-03-14T10:17:13;11.30;67.60
72206;DHT22;60111;48.286;7.812;2023-03-14T10:19:56;11.30;68.30
72206;DHT22;60111;48.286;7.812;2023-03-14T10:22:30;11.30;69.70
72206;DHT22;60111;48.286;7.812;2023-03-14T10:25:06;11.30;70.10
72206;DHT22;60111;48.286;7.812;2023-03-14T10:27:40;11.20;70.30
72206;DHT22;60111;48.286;7.812;2023-03-14T10:30:27;11.20;70.90
72206;DHT22;60111;48.286;7.812;2023-03-14T10:32:48;11.20;71.30
72206;DHT22;60111;48.286;7.812;2023-03-14T10:35:23;11.20;70.50
72206;DHT22;60111;48.286;7.812;2023-03-14T10:38:01;11.30;71.60
72206;DHT22;60111;48.286;7.812;2023-03-14T10:40:40;11.30;71.10
72206;DHT22;60111;48.286;7.812;2023-03-14T10:43:17;11.30;71.20
72206;DHT22;60111;48.286;7.812;2023-03-14T10:45:57;11.20;70.70
72206;DHT22;60111;48.286;7.812;2023-03-14T10:48:35;11.30;70.30
72206;DHT22;60111;48.286;7.812;2023-03-14T10:56:36;11.40;70.40
72206;DHT22;60111;48.286;7.812;2023-03-14T10:59:14;11.40;70.70
72206;DHT22;60111;48.286;7.812;2023-03-14T11:02:07;11.50;70.90
72206;DHT22;60111;48.286;7.812;2023-03-14T11:04:59;11.40;72.00
72206;DHT22;60111;48.286;7.812;2023-03-14T11:07:40;11.40;71.90
72206;DHT22;60111;48.286;7.812;2023-03-14T11:10:26;11.30;74.00
72206;DHT22;60111;48.286;7.812;2023-03-14T11:13:18;11.00;74.40
72206;DHT22;60111;48.286;7.812;2023-03-14T11:16:09;10.80;74.40
72206;DHT22;60111;48.286;7.812;2023-03-14T11:19:11;10.70;72.90
72206;DHT22;60111;48.286;7.812;2023-03-14T11:21:51;10.50;71.50
72206;DHT22;60111;48.286;7.812;2023-03-14T11:24:49;10.40;68.60
72206;DHT22;60111;48.286;7.812;2023-03-14T11:27:50;10.40;68.40
72206;DHT22;60111;48.286;7.812;2023-03-14T11:33:14;10.40;65.60
72206;DHT22;60111;48.286;7.812;2023-03-14T11:35:58;10.40;63.30
72206;DHT22;60111;48.286;7.812;2023-03-14T11:38:48;10.50;63.10
72206;DHT22;60111;48.286;7.812;2023-03-14T11:41:23;10.50;62.40
72206;DHT22;60111;48.286;7.812;2023-03-14T11:43:58;10.40;61.70
72206;DHT22;60111;48.286;7.812;2023-03-14T11:46:39;10.40;60.50
72206;DHT22;60111;48.286;7.812;2023-03-14T11:49:34;10.50;61.60
72206;DHT22;60111;48.286;7.812;2023-03-14T11:52:26;10.50;59.90
72206;DHT22;60111;48.286;7.812;2023-03-14T11:57:51;10.50;59.40
72206;DHT22;60111;48.286;7.812;2023-03-14T12:00:25;10.50;59.90
72206;DHT22;60111;48.286;7.812;2023-03-14T12:03:23;10.50;59.60
72206;DHT22;60111;48.286;7.812;2023-03-14T12:13:56;10.70;59.50
72206;DHT22;60111;48.286;7.812;2023-03-14T12:16:39;10.70;59.10
72206;DHT22;60111;48.286;7.812;2023-03-14T12:21:57;10.90;56.40
72206;DHT22;60111;48.286;7.812;2023-03-14T12:24:31;11.00;54.80
72206;DHT22;60111;48.286;7.812;2023-03-14T12:27:06;11.00;53.80
72206;DHT22;60111;48.286;7.812;2023-03-14T12:30:00;11.00;54.40
72206;DHT22;60111;48.286;7.812;2023-03-14T12:32:33;11.00;53.50
72206;DHT22;60111;48.286;7.812;2023-03-14T12:35:44;11.10;52.40
72206;DHT22;60111;48.286;7.812;2023-03-14T12:41:01;11.20;52.60
72206;DHT22;60111;48.286;7.812;2023-03-14T12:43:35;11.10;53.30
72206;DHT22;60111;48.286;7.812;2023-03-14T12:48:56;11.00;53.30
72206;DHT22;60111;48.286;7.812;2023-03-14T12:51:37;10.90;53.10
72206;DHT22;60111;48.286;7.812;2023-03-14T12:59:58;10.90;51.10
72206;DHT22;60111;48.286;7.812;2023-03-14T13:02:45;10.70;49.80
72206;DHT22;60111;48.286;7.812;2023-03-14T13:05:21;10.70;50.20
72206;DHT22;60111;48.286;7.812;2023-03-14T13:10:42;10.80;50.40
72206;DHT22;60111;48.286;7.812;2023-03-14T13:13:24;10.70;50.20
72206;DHT22;60111;48.286;7.812;2023-03-14T13:16:01;10.60;50.50
72206;DHT22;60111;48.286;7.812;2023-03-14T13:18:39;10.60;48.90
72206;DHT22;60111;48.286;7.812;2023-03-14T13:21:20;10.50;48.60
72206;DHT22;60111;48.286;7.812;2023-03-14T13:23:56;10.50;50.30
72206;DHT22;60111;48.286;7.812;2023-03-14T13:29:28;10.50;50.80
72206;DHT22;60111;48.286;7.812;2023-03-14T13:32:17;10.60;50.40
72206;DHT22;60111;48.286;7.812;2023-03-14T13:34:47;10.60;49.60
72206;DHT22;60111;48.286;7.812;2023-03-14T13:37:22;10.50;48.70
72206;DHT22;60111;48.286;7.812;2023-03-14T13:39:57;10.50;48.40
72206;DHT22;60111;48.286;7.812;2023-03-14T13:42:30;10.40;47.80
72206;DHT22;60111;48.286;7.812;2023-03-14T13:45:03;10.40;48.60
72206;DHT22;60111;48.286;7.812;2023-03-14T13:47:38;10.30;48.50
72206;DHT22;60111;48.286;7.812;2023-03-14T13:50:16;10.40;49.00
72206;DHT22;60111;48.286;7.812;2023-03-14T13:52:55;10.40;48.50
72206;DHT22;60111;48.286;7.812;2023-03-14T13:55:29;10.40;46.50
72206;DHT22;60111;48.286;7.812;2023-03-14T13:58:02;10.30;45.60
72206;DHT22;60111;48.286;7.812;2023-03-14T14:00:35;10.40;47.10
72206;DHT22;60111;48.286;7.812;2023-03-14T14:03:09;10.40;48.30
72206;DHT22;60111;48.286;7.812;2023-03-14T14:05:44;10.40;47.60
72206;DHT22;60111;48.286;7.812;2023-03-14T14:08:16;10.50;48.00
72206;DHT22;60111;48.286;7.812;2023-03-14T14:10:49;10.50;48.60
72206;DHT22;60111;48.286;7.812;2023-03-14T14:13:24;10.50;49.10
72206;DHT22;60111;48.286;7.812;2023-03-14T14:15:59;10.60;48.70
72206;DHT22;60111;48.286;7.812;2023-03-14T14:18:33;10.60;48.50
72206;DHT22;60111;48.286;7.812;2023-03-14T14:21:08;10.50;47.50
72206;DHT22;60111;48.286;7.812;2023-03-14T14:23:42;10.50;47.40
72206;DHT22;60111;48.286;7.812;2023-03-14T14:26:17;10.50;48.00
72206;DHT22;60111;48.286;7.812;2023-03-14T14:29:04;10.50;47.90
72206;DHT22;60111;48.286;7.812;2023-03-14T14:31:37;10.50;48.60
72206;DHT22;60111;48.286;7.812;2023-03-14T14:34:23;10.50;47.80
72206;DHT22;60111;48.286;7.812;2023-03-14T14:36:52;10.50;47.30
72206;DHT22;60111;48.286;7.812;2023-03-14T14:39:26;10.40;47.70
72206;DHT22;60111;48.286;7.812;2023-03-14T14:42:00;10.40;48.80
72206;DHT22;60111;48.286;7.812;2023-03-14T14:44:34;10.50;48.80
72206;DHT22;60111;48.286;7.812;2023-03-14T14:47:11;10.50;48.50
72206;DHT22;60111;48.286;7.812;2023-03-14T14:49:41;10.50;47.90
72206;DHT22;60111;48.286;7.812;2023-03-14T14:52:19;10.60;47.50
72206;DHT22;60111;48.286;7.812;2023-03-14T14:54:58;10.70;47.50
72206;DHT22;60111;48.286;7.812;2023-03-14T14:57:40;10.80;47.40
72206;DHT22;60111;48.286;7.812;2023-03-14T15:00:23;10.70;47.50
72206;DHT22;60111;48.286;7.812;2023-03-14T15:02:58;10.70;47.50
72206;DHT22;60111;48.286;7.812;2023-03-14T15:05:30;10.70;47.90
72206;DHT22;60111;48.286;7.812;2023-03-14T15:08:09;10.70;48.90
72206;DHT22;60111;48.286;7.812;2023-03-14T15:10:42;10.80;48.10
72206;DHT22;60111;48.286;7.812;2023-03-14T15:13:14;10.70;47.80
72206;DHT22;60111;48.286;7.812;2023-03-14T15:15:48;10.70;48.00
72206;DHT22;60111;48.286;7.812;2023-03-14T15:18:28;10.80;47.60
72206;DHT22;60111;48.286;7.812;2023-03-14T15:21:02;10.80;47.60
72206;DHT22;60111;48.286;7.812;2023-03-14T15:23:34;10.80;48.00
72206;DHT22;60111;48.286;7.812;2023-03-14T15:26:19;10.80;47.80
72206;DHT22;60111;48.286;7.812;2023-03-14T15:28:51;10.70;47.90
72206;DHT22;60111;48.286;7.812;2023-03-14T15:31:24;10.70;48.30
72206;DHT22;60111;48.286;7.812;2023-03-14T15:33:57;10.70;48.10
72206;DHT22;60111;48.286;7.812;2023-03-14T15:36:31;10.80;48.10
72206;DHT22;60111;48.286;7.812;2023-03-14T15:39:06;10.90;48.60
72206;DHT22;60111;48.286;7.812;2023-03-14T15:41:38;10.90;48.20
72206;DHT22;60111;48.286;7.812;2023-03-14T15:44:11;10.80;47.50
72206;DHT22;60111;48.286;7.812;2023-03-14T15:46:43;10.90;47.90
72206;DHT22;60111;48.286;7.812;2023-03-14T15:49:16;10.90;47.80
72206;DHT22;60111;48.286;7.812;2023-03-14T15:51:49;10.90;48.10
72206;DHT22;60111;48.286;7.812;2023-03-14T15:54:21;10.90;48.00
72206;DHT22;60111;48.286;7.812;2023-03-14T15:56:55;10.80;48.00
72206;DHT22;60111;48.286;7.812;2023-03-14T15:59:28;10.90;48.30
72206;DHT22;60111;48.286;7.812;2023-03-14T16:02:00;10.80;48.90
72206;DHT22;60111;48.286;7.812;2023-03-14T16:04:33;10.80;49.60
72206;DHT22;60111;48.286;7.812;2023-03-14T16:07:05;10.70;50.80
72206;DHT22;60111;48.286;7.812;2023-03-14T16:09:38;10.60;53.20
72206;DHT22;60111;48.286;7.812;2023-03-14T16:12:10;10.20;58.30
72206;DHT22;60111;48.286;7.812;2023-03-14T16:14:43;9.80;60.50
72206;DHT22;60111;48.286;7.812;2023-03-14T16:17:15;9.40;64.00
72206;DHT22;60111;48.286;7.812;2023-03-14T16:19:48;9.10;66.40
72206;DHT22;60111;48.286;7.812;2023-03-14T16:22:20;8.90;67.80
72206;DHT22;60111;48.286;7.812;2023-03-14T16:24:53;8.80;67.50
72206;DHT22;60111;48.286;7.812;2023-03-14T16:27:26;8.70;68.20
72206;DHT22;60111;48.286;7.812;2023-03-14T16:29:59;8.70;68.30
72206;DHT22;60111;48.286;7.812;2023-03-14T16:32:31;8.70;68.70
72206;DHT22;60111;48.286;7.812;2023-03-14T16:35:05;8.70;68.40
72206;DHT22;60111;48.286;7.812;2023-03-14T16:37:37;8.70;69.40
72206;DHT22;60111;48.286;7.812;2023-03-14T16:40:11;8.70;67.70
72206;DHT22;60111;48.286;7.812;2023-03-14T16:42:43;8.70;67.10
72206;DHT22;60111;48.286;7.812;2023-03-14T16:45:16;8.70;65.40
72206;DHT22;60111;48.286;7.812;2023-03-14T16:47:48;8.70;65.00
72206;DHT22;60111;48.286;7.812;2023-03-14T16:50:21;8.70;66.80
72206;DHT22;60111;48.286;7.812;2023-03-14T16:52:54;8.70;67.90
72206;DHT22;60111;48.286;7.812;2023-03-14T16:55:26;8.70;68.70
72206;DHT22;60111;48.286;7.812;2023-03-14T16:57:59;8.60;68.90
72206;DHT22;60111;48.286;7.812;2023-03-14T17:00:31;8.60;69.10
72206;DHT22;60111;48.286;7.812;2023-03-14T17:03:04;8.60;67.70